Terminal Aerodrome Forecast
Issued by NWS Denver/Boulder, CO

Home | Current Version | Previous Version | Text Only | Print | Product List | Glossary On
Versions: 1 2 3 4 5 6 7 8 9 10 11 12 13 14 15 16 17 18 19 20 21 22 23 24 25 26 27 28 29 30 31 32 33 34 35 36 37 38 39 40 41 42 43 44 45 46 47 48 49 50
000
FTUS45 KBOU 100520
TAFDEN
TAF
KDEN 100520Z 1006/1112 22010KT P6SM SCT120 BKN200
     FM101500 VRB05KT P6SM SCT200
     FM101800 14008KT P6SM FEW120 BKN200
     FM102200 15012KT P6SM VCTS SCT080CB BKN120
     FM110000 33012KT P6SM VCTS SCT080CB BKN120
     FM110200 24010KT P6SM FEW080 SCT120 BKN200=

USA.gov is the U.S. government's official web portal to all federal, state and local government web resources and services.